Time;durP1;ratioP1;P1;durP2;ratioP2;P2;SDS_P1;SDS_P2;PMS_P1;PMS_P2;Temp;Humidity;BMP_temperature;BMP_pressure;BME280_temperature;BME280_humidity;BME280_pressure;Samples;Min_cycle;Max_cycle;Signal;HPM_P1;HPM_P2
2022/09/04 00:02:14;;;;;;;2.07;1.70;;;15.90;1.00;;;;;;5087881;28;20509;-71
2022/09/04 00:04:59;;;;;;;5.63;1.63;;;15.90;1.00;;;;;;5095765;28;20415;-70
2022/09/04 00:07:53;;;;;;;2.13;1.57;;;15.90;1.00;;;;;;5095835;28;20411;-70
2022/09/04 00:10:28;;;;;;;3.20;1.60;;;15.90;1.00;;;;;;5076665;28;20423;-68
2022/09/04 00:13:21;;;;;;;1.37;1.27;;;15.90;1.00;;;;;;5077716;28;20454;-67
2022/09/04 00:16:11;;;;;;;2.23;1.23;;;15.90;1.00;;;;;;5076154;28;20475;-68
2022/09/04 00:18:55;;;;;;;3.13;1.47;;;15.80;1.00;;;;;;5045174;28;20455;-71
2022/09/04 00:21:33;;;;;;;1.37;1.27;;;15.80;1.00;;;;;;5078855;28;20403;-71
2022/09/04 00:24:14;;;;;;;2.03;1.30;;;15.90;1.00;;;;;;5077961;28;20403;-69
2022/09/04 00:26:56;;;;;;;1.60;1.47;;;15.90;1.00;;;;;;5089524;28;20409;-71
2022/09/04 00:29:36;;;;;;;1.97;1.47;;;16.00;1.00;;;;;;5076603;28;20527;-69
2022/09/04 00:32:38;;;;;;;2.80;1.50;;;15.90;1.00;;;;;;5094714;28;20926;-70
2022/09/04 00:35:43;;;;;;;2.07;1.50;;;16.00;1.00;;;;;;5090054;28;20505;-68
2022/09/04 00:38:40;;;;;;;1.40;1.30;;;16.00;1.00;;;;;;5059230;28;20481;-70
2022/09/04 00:41:20;;;;;;;1.53;1.43;;;15.90;1.00;;;;;;5092091;28;20417;-71
2022/09/04 00:43:55;;;;;;;1.70;1.50;;;15.90;1.00;;;;;;5096403;28;20407;-70
2022/09/04 00:46:52;;;;;;;1.80;1.43;;;15.80;1.00;;;;;;5089855;28;20419;-68
2022/09/04 00:49:51;;;;;;;4.17;1.47;;;15.80;1.00;;;;;;5075910;28;20440;-67
2022/09/04 00:53:07;;;;;;;4.60;1.20;;;15.80;1.00;;;;;;5088262;28;20422;-70
2022/09/04 00:55:42;;;;;;;2.00;1.70;;;15.80;1.00;;;;;;5096060;28;20445;-70
2022/09/04 00:58:30;;;;;;;1.97;1.40;;;15.70;1.00;;;;;;5093533;28;20454;-71
2022/09/04 01:01:06;;;;;;;2.13;1.13;;;15.80;1.00;;;;;;5091590;28;20447;-68
2022/09/04 01:03:42;;;;;;;1.40;1.30;;;15.80;1.00;;;;;;5096040;28;20414;-70
2022/09/04 01:06:31;;;;;;;2.13;1.73;;;15.80;1.00;;;;;;5071294;28;20465;-68
2022/09/04 01:09:17;;;;;;;1.77;1.50;;;15.80;1.00;;;;;;5093797;28;20427;-71
2022/09/04 01:12:07;;;;;;;4.80;1.40;;;15.80;1.00;;;;;;5081199;28;20413;-71
2022/09/04 01:14:41;;;;;;;2.23;1.50;;;15.80;1.00;;;;;;5058606;28;20431;-70
2022/09/04 01:17:29;;;;;;;1.57;1.47;;;15.70;1.00;;;;;;5078280;28;20451;-68
2022/09/04 01:20:00;;;;;;;2.63;1.50;;;15.70;1.00;;;;;;5075385;28;20413;-67
2022/09/04 01:22:58;;;;;;;3.40;1.10;;;15.70;1.00;;;;;;5081515;28;20411;-70
2022/09/04 01:25:48;;;;;;;1.73;1.63;;;15.70;1.00;;;;;;5070400;28;20756;-71
2022/09/04 01:28:31;;;;;;;1.80;1.30;;;15.60;1.00;;;;;;5091366;28;20784;-69
2022/09/04 01:31:41;;;;;;;5.43;1.30;;;15.60;1.00;;;;;;5077212;28;20927;-68
2022/09/04 01:34:47;;;;;;;1.60;1.50;;;15.60;1.00;;;;;;5094448;28;20457;-71
2022/09/04 01:37:27;;;;;;;2.30;1.20;;;15.60;1.00;;;;;;5011499;28;20470;-67
2022/09/04 01:40:22;;;;;;;5.13;1.53;;;15.60;1.00;;;;;;5070477;28;20409;-67
2022/09/04 01:42:54;;;;;;;2.53;1.50;;;15.50;1.00;;;;;;5082736;28;20451;-70
2022/09/04 01:45:41;;;;;;;3.63;1.37;;;15.50;1.00;;;;;;5076178;28;20421;-71
2022/09/04 01:48:12;;;;;;;1.57;1.47;;;15.50;1.00;;;;;;5082801;28;20434;-67
2022/09/04 01:50:42;;;;;;;1.43;1.33;;;15.50;1.00;;;;;;5094950;28;20439;-68
2022/09/04 01:53:16;;;;;;;1.30;1.00;;;15.40;1.00;;;;;;5094125;28;20412;-68
2022/09/04 01:56:27;;;;;;;1.77;1.67;;;15.40;1.00;;;;;;5094640;28;20989;-67
2022/09/04 01:59:12;;;;;;;1.97;1.30;;;15.50;1.00;;;;;;5033926;28;20546;-68
2022/09/04 02:01:55;;;;;;;2.53;1.20;;;15.40;1.00;;;;;;5088303;28;20423;-67
2022/09/04 02:04:30;;;;;;;1.40;1.30;;;15.40;1.00;;;;;;5094746;28;20403;-70
2022/09/04 02:07:17;;;;;;;2.33;1.27;;;15.40;1.00;;;;;;5078702;28;20423;-70
2022/09/04 02:10:00;;;;;;;1.43;1.30;;;15.40;1.00;;;;;;5093427;28;20854;-67
2022/09/04 02:12:49;;;;;;;3.97;1.40;;;15.40;1.00;;;;;;5073976;28;20503;-68
2022/09/04 02:15:36;;;;;;;1.50;1.30;;;15.50;1.00;;;;;;5057211;28;20424;-67
2022/09/04 02:18:23;;;;;;;3.47;1.60;;;15.50;1.00;;;;;;5073300;28;20494;-68
2022/09/04 02:20:58;;;;;;;1.60;1.20;;;15.50;1.00;;;;;;5078712;28;20396;-71
2022/09/04 02:23:38;;;;;;;1.40;1.30;;;15.60;1.00;;;;;;5094068;28;20403;-68
2022/09/04 02:26:16;;;;;;;3.20;1.30;;;15.60;1.00;;;;;;5086983;28;20558;-68
2022/09/04 02:28:45;;;;;;;4.60;1.70;;;15.60;1.00;;;;;;5073946;28;20479;-69
2022/09/04 02:31:25;;;;;;;1.53;1.33;;;15.60;1.00;;;;;;5079719;28;20408;-70
2022/09/04 02:34:06;;;;;;;2.63;1.13;;;15.60;1.00;;;;;;5094339;28;20490;-70
2022/09/04 02:37:01;;;;;;;1.30;1.20;;;15.60;1.00;;;;;;5084136;28;21027;-67
2022/09/04 02:39:47;;;;;;;1.80;1.70;;;15.60;1.00;;;;;;5073628;28;20488;-70
2022/09/04 02:42:31;;;;;;;1.50;1.40;;;15.60;1.00;;;;;;5069644;28;20930;-67
2022/09/04 02:45:28;;;;;;;2.87;1.43;;;15.70;1.00;;;;;;5075008;28;20457;-67
2022/09/04 02:48:18;;;;;;;1.63;1.53;;;15.60;1.00;;;;;;5089100;28;20931;-67
2022/09/04 02:50:46;;;;;;;2.60;1.30;;;15.70;1.00;;;;;;5090649;28;20778;-70
2022/09/04 02:53:25;;;;;;;2.10;1.70;;;15.60;1.00;;;;;;5093862;28;20407;-70
2022/09/04 02:56:12;;;;;;;2.70;1.07;;;15.70;1.00;;;;;;5071175;28;20781;-67
2022/09/04 02:59:13;;;;;;;2.23;1.10;;;15.70;1.00;;;;;;5073326;28;20472;-69
2022/09/04 03:01:48;;;;;;;2.13;1.27;;;15.70;1.00;;;;;;5074547;28;20407;-67
2022/09/04 03:04:24;;;;;;;2.13;1.30;;;15.60;1.00;;;;;;5073149;28;20411;-70
2022/09/04 03:07:00;;;;;;;3.57;1.97;;;15.60;1.00;;;;;;5073169;28;20435;-68
2022/09/04 03:09:37;;;;;;;1.40;1.30;;;15.60;1.00;;;;;;5073110;28;20439;-70
2022/09/04 03:12:33;;;;;;;5.00;1.30;;;15.60;1.00;;;;;;5079336;28;20400;-68
2022/09/04 03:15:16;;;;;;;1.50;1.40;;;15.50;1.00;;;;;;5073175;28;20424;-70
2022/09/04 03:18:04;;;;;;;2.30;1.43;;;15.60;1.00;;;;;;5072264;28;20463;-71
2022/09/04 03:20:41;;;;;;;2.07;1.30;;;15.60;1.00;;;;;;5086120;28;20473;-71
2022/09/04 03:23:23;;;;;;;3.10;1.30;;;15.60;1.00;;;;;;5093041;28;20415;-67
2022/09/04 03:25:49;;;;;;;1.70;1.60;;;15.60;1.00;;;;;;5077731;28;20419;-68
2022/09/04 03:28:48;;;;;;;1.87;1.43;;;15.60;1.00;;;;;;5078837;28;20530;-68
2022/09/04 03:31:36;;;;;;;1.63;1.40;;;15.60;1.00;;;;;;5093400;28;20170;-70
2022/09/04 03:34:25;;;;;;;2.10;1.30;;;15.60;1.00;;;;;;5090737;28;20919;-68
2022/09/04 03:37:12;;;;;;;1.93;1.30;;;15.60;1.00;;;;;;5091784;28;20510;-67
2022/09/04 03:39:56;;;;;;;4.30;1.77;;;15.60;1.00;;;;;;5092062;28;20484;-67
2022/09/04 03:42:28;;;;;;;3.33;1.50;;;15.50;1.00;;;;;;5083157;28;20420;-68
2022/09/04 03:45:11;;;;;;;4.10;1.40;;;15.50;1.00;;;;;;5055265;28;20750;-71
2022/09/04 03:48:02;;;;;;;2.37;1.70;;;15.50;1.00;;;;;;5085537;28;20434;-68
2022/09/04 03:50:55;;;;;;;3.03;1.50;;;15.50;1.00;;;;;;5091339;28;20818;-71
2022/09/04 03:53:33;;;;;;;1.50;1.40;;;15.50;1.00;;;;;;5093167;28;20462;-67
2022/09/04 03:56:08;;;;;;;2.40;1.50;;;15.40;1.00;;;;;;5074067;28;20434;-73
2022/09/04 03:59:04;;;;;;;3.97;2.50;;;15.40;1.00;;;;;;5092080;28;20796;-67
2022/09/04 04:01:42;;;;;;;1.90;1.30;;;15.40;1.00;;;;;;5090687;28;20411;-70
2022/09/04 04:04:33;;;;;;;1.30;1.20;;;15.30;1.00;;;;;;5092567;28;20450;-71
2022/09/04 04:07:21;;;;;;;2.80;1.60;;;15.30;1.00;;;;;;5091296;28;20423;-71
2022/09/04 04:10:01;;;;;;;2.70;1.67;;;15.30;1.00;;;;;;5073035;28;20548;-67
2022/09/04 04:12:48;;;;;;;1.37;1.27;;;15.30;1.00;;;;;;5079487;28;20447;-71
2022/09/04 04:15:23;;;;;;;1.80;1.50;;;15.20;1.00;;;;;;5091052;28;20488;-70
2022/09/04 04:18:26;;;;;;;1.63;1.53;;;15.20;1.00;;;;;;5087563;28;20471;-68
2022/09/04 04:21:04;;;;;;;2.70;1.73;;;15.20;1.00;;;;;;5076433;28;20407;-66
2022/09/04 04:23:55;;;;;;;1.50;1.40;;;15.10;1.00;;;;;;5074669;28;20506;-67
2022/09/04 04:26:27;;;;;;;4.40;1.83;;;15.10;1.00;;;;;;5083932;28;20597;-67
2022/09/04 04:29:33;;;;;;;1.70;1.60;;;15.10;1.00;;;;;;5072423;28;20436;-67
2022/09/04 04:32:09;;;;;;;2.60;1.43;;;15.10;1.00;;;;;;5084189;28;20430;-71
2022/09/04 04:34:52;;;;;;;1.53;1.43;;;15.10;1.00;;;;;;5091082;28;20423;-70
2022/09/04 04:37:25;;;;;;;1.67;1.57;;;15.10;1.00;;;;;;5077531;28;20466;-67
2022/09/04 04:40:20;;;;;;;2.00;1.57;;;15.10;1.00;;;;;;5072380;28;20405;-71
2022/09/04 04:42:58;;;;;;;2.60;1.80;;;15.10;1.00;;;;;;5066986;28;20420;-69
2022/09/04 04:46:06;;;;;;;1.50;1.40;;;15.20;1.00;;;;;;5088467;28;20438;-68
2022/09/04 04:48:32;;;;;;;2.17;1.70;;;15.10;1.00;;;;;;4994213;28;20464;-70
2022/09/04 04:51:39;;;;;;;1.33;1.23;;;15.10;1.00;;;;;;4994003;28;20412;-72
2022/09/04 04:54:39;;;;;;;1.30;1.20;;;15.10;1.00;;;;;;5073533;28;20197;-71
2022/09/04 04:57:19;;;;;;;1.20;1.10;;;15.10;1.00;;;;;;5041331;28;20498;-67
2022/09/04 05:00:07;;;;;;;2.10;1.63;;;15.00;1.00;;;;;;5075672;28;20441;-67
2022/09/04 05:03:14;;;;;;;2.90;1.77;;;15.00;1.00;;;;;;5089484;28;20443;-70
2022/09/04 05:06:01;;;;;;;2.07;1.80;;;14.90;1.00;;;;;;4994167;28;20446;-69
2022/09/04 05:08:40;;;;;;;1.57;1.37;;;14.90;1.00;;;;;;5071509;28;20968;-67
2022/09/04 05:11:24;;;;;;;2.03;1.53;;;14.90;1.00;;;;;;5076641;28;20408;-66
2022/09/04 05:14:17;;;;;;;2.50;1.27;;;14.90;1.00;;;;;;5075585;28;20388;-67
2022/09/04 05:16:48;;;;;;;3.07;1.63;;;15.00;1.00;;;;;;5083013;28;20455;-71
2022/09/04 05:19:38;;;;;;;1.60;1.50;;;14.90;1.00;;;;;;5072259;28;20436;-67
2022/09/04 05:22:12;;;;;;;1.87;1.37;;;14.90;1.00;;;;;;5075439;28;20470;-68
2022/09/04 05:25:15;;;;;;;2.33;1.50;;;14.90;1.00;;;;;;5082356;28;20411;-70
2022/09/04 05:28:20;;;;;;;2.00;1.90;;;14.90;1.00;;;;;;5090278;28;20411;-67
2022/09/04 05:31:05;;;;;;;2.77;1.27;;;15.00;1.00;;;;;;5075120;28;20430;-68
2022/09/04 05:34:04;;;;;;;1.40;1.30;;;14.90;1.00;;;;;;5083228;28;20419;-67
2022/09/04 05:36:55;;;;;;;2.23;1.90;;;14.90;1.00;;;;;;5076255;28;20963;-67
2022/09/04 05:39:24;;;;;;;1.33;1.23;;;15.00;1.00;;;;;;5075740;28;20463;-72
2022/09/04 05:42:11;;;;;;;1.60;1.50;;;15.00;1.00;;;;;;5090850;28;20412;-71
2022/09/04 05:45:01;;;;;;;3.07;1.50;;;15.00;1.00;;;;;;5074590;28;20396;-73
2022/09/04 05:47:48;;;;;;;2.07;1.87;;;15.00;1.00;;;;;;5078280;28;20450;-73
2022/09/04 05:50:22;;;;;;;3.00;2.00;;;15.00;1.00;;;;;;5076750;28;20411;-70
2022/09/04 05:53:25;;;;;;;2.03;1.93;;;15.00;1.00;;;;;;5095035;28;20415;-70
2022/09/04 05:56:11;;;;;;;1.50;1.40;;;15.10;1.00;;;;;;5094099;28;20415;-73
2022/09/04 05:58:52;;;;;;;1.83;1.40;;;15.10;1.00;;;;;;5065795;28;20447;-70
2022/09/04 06:02:09;;;;;;;1.67;1.57;;;15.20;1.00;;;;;;5059081;28;20423;-71
2022/09/04 06:05:22;;;;;;;;;;;;;;;;;;;;;
2022/09/04 06:08:10;;;;;;;1.57;1.47;;;15.20;1.00;;;;;;5078240;28;20428;-71
2022/09/04 06:10:54;;;;;;;2.03;1.60;;;15.30;1.00;;;;;;5057100;28;20978;-68
2022/09/04 06:13:31;;;;;;;1.70;1.60;;;15.20;1.00;;;;;;5094250;28;20423;-67
2022/09/04 06:16:26;;;;;;;1.63;1.53;;;15.20;1.00;;;;;;5092659;28;20428;-69
2022/09/04 06:19:05;;;;;;;2.40;1.93;;;15.30;1.00;;;;;;5074268;28;20564;-69
2022/09/04 06:21:56;;;;;;;1.77;1.67;;;15.30;1.00;;;;;;5069553;28;20423;-70
2022/09/04 06:24:39;;;;;;;2.17;1.87;;;15.30;1.00;;;;;;5074003;28;20488;-67
2022/09/04 06:27:17;;;;;;;1.93;1.73;;;15.40;1.00;;;;;;5055476;28;20448;-70
2022/09/04 06:30:00;;;;;;;1.53;1.43;;;15.40;1.00;;;;;;5056256;28;20424;-71
2022/09/04 06:33:05;;;;;;;3.50;1.80;;;15.40;1.00;;;;;;5056259;28;20416;-66
2022/09/04 06:35:49;;;;;;;1.93;1.40;;;15.50;1.00;;;;;;5056300;28;20784;-68
2022/09/04 06:38:48;;;;;;;2.07;1.77;;;15.60;1.00;;;;;;5055085;28;20448;-67
2022/09/04 06:48:31;;;;;;;2.90;1.40;;;16.00;1.00;;;;;;5072727;28;20423;-71
2022/09/04 06:51:07;;;;;;;1.67;1.57;;;16.10;1.00;;;;;;5079325;28;20408;-71
2022/09/04 06:53:56;;;;;;;2.23;2.00;;;16.30;1.00;;;;;;5075744;28;20773;-71
2022/09/04 06:56:44;;;;;;;1.90;1.70;;;16.40;1.00;;;;;;5074637;28;20408;-68
2022/09/04 06:59:45;;;;;;;1.77;1.67;;;16.60;1.00;;;;;;5092986;28;20442;-68
2022/09/04 07:02:32;;;;;;;4.73;1.63;;;16.70;1.00;;;;;;5075820;28;20427;-72
2022/09/04 07:05:42;;;;;;;3.00;2.10;;;16.80;1.00;;;;;;5075553;28;20461;-72
2022/09/04 07:08:50;;;;;;;1.83;1.50;;;16.90;1.00;;;;;;5092662;28;20434;-72
2022/09/04 07:11:16;;;;;;;2.17;1.97;;;17.10;1.00;;;;;;5074801;28;20415;-67
2022/09/04 07:13:59;;;;;;;2.53;1.73;;;17.20;1.00;;;;;;5093494;28;20411;-67
2022/09/04 07:16:40;;;;;;;2.30;1.50;;;17.30;1.00;;;;;;5073712;28;20423;-72
2022/09/04 07:19:48;;;;;;;1.93;1.80;;;17.40;1.00;;;;;;5093270;28;20428;-69
2022/09/04 07:22:37;;;;;;;2.20;2.00;;;17.50;1.00;;;;;;5075260;28;20457;-71
2022/09/04 07:25:40;;;;;;;1.90;1.60;;;17.50;1.00;;;;;;5093299;28;20407;-72
2022/09/04 07:28:24;;;;;;;2.60;1.40;;;17.50;1.00;;;;;;5074497;28;20435;-69
2022/09/04 07:31:02;;;;;;;1.57;1.47;;;17.50;1.00;;;;;;5075121;28;20420;-68
2022/09/04 07:33:54;;;;;;;3.67;1.97;;;17.50;1.00;;;;;;5093127;28;20403;-71
2022/09/04 07:36:44;;;;;;;1.90;1.53;;;17.50;1.00;;;;;;5073478;28;20427;-67
2022/09/04 07:42:43;;;;;;;2.37;2.00;;;17.60;1.00;;;;;;5000149;28;20407;-68
2022/09/04 07:45:31;;;;;;;1.90;1.80;;;17.60;1.00;;;;;;5093019;28;20400;-72
2022/09/04 07:48:31;;;;;;;3.03;2.00;;;17.70;1.00;;;;;;5074176;28;20432;-68
2022/09/04 07:51:09;;;;;;;1.67;1.53;;;17.80;1.00;;;;;;5074868;28;20396;-72
2022/09/04 07:54:17;;;;;;;3.30;2.07;;;17.90;1.00;;;;;;5074808;28;20416;-68
2022/09/04 07:57:21;;;;;;;3.70;3.40;;;17.90;1.00;;;;;;5091489;28;20518;-68
2022/09/04 08:00:07;;;;;;;2.80;2.37;;;18.10;1.00;;;;;;5074739;28;20462;-68
2022/09/04 08:02:42;;;;;;;1.40;1.30;;;18.10;1.00;;;;;;5093137;28;20530;-71
2022/09/04 08:05:17;;;;;;;2.13;1.67;;;18.20;1.00;;;;;;5075200;28;20410;-72
2022/09/04 08:08:13;;;;;;;1.83;1.73;;;18.30;1.00;;;;;;5091939;28;20517;-68
2022/09/04 08:11:06;;;;;;;2.30;2.10;;;18.40;1.00;;;;;;5092944;28;20412;-67
2022/09/04 08:13:47;;;;;;;2.80;2.00;;;18.50;1.00;;;;;;5070122;28;20404;-72
2022/09/04 08:16:41;;;;;;;2.07;1.90;;;18.60;1.00;;;;;;5091339;28;20419;-67
2022/09/04 08:19:39;;;;;;;3.50;2.20;;;18.60;1.00;;;;;;5074618;28;20948;-72
2022/09/04 08:22:07;;;;;;;2.07;1.90;;;18.80;1.00;;;;;;5076677;28;20966;-71
2022/09/04 08:25:01;;;;;;;3.63;1.80;;;19.00;1.00;;;;;;5078868;28;20404;-72
2022/09/04 08:28:01;;;;;;;4.83;2.60;;;19.10;1.00;;;;;;5095795;28;20802;-71
2022/09/04 08:30:46;;;;;;;2.67;2.13;;;19.20;1.00;;;;;;5078531;28;20415;-68
2022/09/04 08:33:27;;;;;;;2.57;1.80;;;19.30;1.00;;;;;;5096061;28;20437;-68
2022/09/04 08:36:06;;;;;;;2.80;1.90;;;19.50;1.00;;;;;;5078110;28;20492;-73
2022/09/04 08:38:54;;;;;;;2.30;1.70;;;19.70;1.00;;;;;;5096566;28;20454;-72
2022/09/04 08:41:38;;;;;;;2.40;1.93;;;19.80;1.00;;;;;;5096552;28;20407;-68
2022/09/04 08:44:28;;;;;;;2.17;1.80;;;19.90;1.00;;;;;;5078119;28;20780;-69
2022/09/04 08:47:28;;;;;;;2.27;2.07;;;20.00;1.00;;;;;;5077265;28;20494;-72
2022/09/04 08:50:11;;;;;;;2.97;2.73;;;20.00;1.00;;;;;;5095917;28;20741;-71
2022/09/04 08:53:08;;;;;;;3.50;2.60;;;20.10;1.00;;;;;;5078013;28;20812;-68
2022/09/04 08:55:56;;;;;;;2.53;2.33;;;20.30;1.00;;;;;;5077974;28;20494;-73
2022/09/04 08:58:24;;;;;;;5.10;2.40;;;20.50;1.00;;;;;;5095303;28;20442;-73
2022/09/04 09:01:21;;;;;;;3.10;2.20;;;20.60;1.00;;;;;;5077971;28;20446;-68
2022/09/04 09:04:05;;;;;;;2.63;2.43;;;20.70;1.00;;;;;;5078109;28;20408;-68
2022/09/04 09:06:50;;;;;;;2.33;1.80;;;20.80;1.00;;;;;;5077204;28;20461;-73
2022/09/04 09:09:25;;;;;;;2.87;2.30;;;21.00;1.00;;;;;;5095219;28;20415;-73
2022/09/04 09:12:20;;;;;;;5.30;3.30;;;21.10;1.00;;;;;;5078028;28;20407;-72
2022/09/04 09:14:51;;;;;;;3.43;3.10;;;21.30;1.00;;;;;;5095206;28;20427;-71
2022/09/04 09:17:49;;;;;;;2.97;2.67;;;21.50;1.00;;;;;;5094900;28;20447;-73
2022/09/04 09:20:27;;;;;;;2.70;2.50;;;21.70;1.00;;;;;;5077483;28;20411;-68
2022/09/04 09:23:14;;;;;;;2.63;2.43;;;21.80;1.00;;;;;;5095582;28;20414;-69
2022/09/04 09:25:55;;;;;;;2.80;2.60;;;21.90;1.00;;;;;;5076945;28;20403;-74
2022/09/04 09:28:58;;;;;;;3.13;2.60;;;21.90;1.00;;;;;;5094721;28;20423;-74
2022/09/04 09:32:02;;;;;;;3.73;2.53;;;22.20;1.00;;;;;;5077565;28;20498;-75
2022/09/04 09:35:01;;;;;;;3.17;2.90;;;22.60;1.00;;;;;;5035690;28;20415;-69
2022/09/04 09:37:46;;;;;;;2.73;2.53;;;22.90;1.00;;;;;;5094325;28;20443;-73
2022/09/04 09:40:38;;;;;;;10.50;2.90;;;23.10;1.00;;;;;;5095038;28;20392;-69
2022/09/04 09:43:40;;;;;;;3.20;2.43;;;23.40;1.00;;;;;;5077270;28;20775;-75
2022/09/04 09:46:44;;;;;;;4.20;3.57;;;23.80;1.00;;;;;;5094764;28;20395;-73
2022/09/04 09:49:41;;;;;;;3.87;3.57;;;23.90;1.00;;;;;;5055497;28;20447;-73
2022/09/04 09:52:12;;;;;;;5.13;2.77;;;24.10;1.00;;;;;;5077208;28;20411;-73
2022/09/04 09:55:20;;;;;;;3.20;2.90;;;24.30;1.00;;;;;;5077552;28;20423;-76
2022/09/04 09:58:30;;;;;;;3.47;2.40;;;24.50;1.00;;;;;;5094299;28;20451;-71
2022/09/04 10:00:58;;;;;;;3.30;2.53;;;24.80;1.00;;;;;;5094936;28;20408;-71
2022/09/04 10:03:58;;;;;;;3.87;3.57;;;25.00;1.00;;;;;;5077113;28;20485;-75
2022/09/04 10:06:33;;;;;;;4.00;3.60;;;25.30;1.00;;;;;;5075910;28;20412;-75
2022/09/04 10:09:23;;;;;;;3.40;2.53;;;25.40;1.00;;;;;;5094991;28;20414;-76
2022/09/04 10:12:11;;;;;;;4.83;2.90;;;25.60;1.00;;;;;;5095015;28;20768;-71
2022/09/04 10:14:55;;;;;;;4.07;3.33;;;25.80;1.00;;;;;;5076564;28;20945;-76
2022/09/04 10:17:43;;;;;;;4.13;3.73;;;25.60;1.00;;;;;;5094175;28;20447;-73
2022/09/04 10:20:35;;;;;;;4.43;3.93;;;25.80;1.00;;;;;;5094484;28;20446;-75
2022/09/04 10:23:06;;;;;;;4.03;3.13;;;25.90;1.00;;;;;;5076538;28;20411;-74
2022/09/04 10:26:02;;;;;;;3.57;3.23;;;25.90;1.00;;;;;;5094795;28;20403;-69
2022/09/04 10:28:44;;;;;;;4.20;3.33;;;26.10;1.00;;;;;;5076666;28;20965;-74
2022/09/04 10:31:25;;;;;;;4.57;3.30;;;26.20;1.00;;;;;;5076904;28;20415;-68
2022/09/04 10:34:15;;;;;;;4.57;4.17;;;26.50;1.00;;;;;;5094594;28;20403;-68
2022/09/04 10:37:13;;;;;;;3.60;3.10;;;26.80;1.00;;;;;;5075139;28;20447;-75
2022/09/04 10:42:49;;;;;;;3.50;3.20;;;27.20;1.00;;;;;;5094504;28;20378;-69
2022/09/04 10:45:15;;;;;;;8.70;3.13;;;26.80;1.00;;;;;;5076089;28;20803;-72
2022/09/04 10:48:15;;;;;;;4.00;3.20;;;26.60;1.00;;;;;;5093691;28;20380;-69
2022/09/04 10:50:55;;;;;;;3.90;3.50;;;26.80;1.00;;;;;;5076098;28;20845;-74
2022/09/04 10:53:39;;;;;;;3.20;2.90;;;27.10;1.00;;;;;;5075598;28;20768;-70
2022/09/04 10:56:15;;;;;;;5.63;3.80;;;27.60;1.00;;;;;;5075314;28;20416;-70
2022/09/04 10:58:55;;;;;;;5.40;3.47;;;27.90;1.00;;;;;;5094119;28;20465;-70
2022/09/04 11:01:39;;;;;;;3.03;2.83;;;27.80;1.00;;;;;;5075824;28;20435;-75
2022/09/04 11:04:13;;;;;;;3.10;2.87;;;27.60;1.00;;;;;;5075938;28;20407;-76
2022/09/04 11:07:11;;;;;;;3.13;2.87;;;27.20;1.00;;;;;;5075278;28;20399;-70
2022/09/04 11:10:05;;;;;;;3.80;2.97;;;27.30;1.00;;;;;;5007130;28;20428;-75
2022/09/04 11:12:50;;;;;;;3.10;2.80;;;27.20;1.00;;;;;;5093453;28;20738;-73
2022/09/04 11:15:31;;;;;;;3.60;3.30;;;27.30;1.00;;;;;;5075614;28;20455;-75
2022/09/04 11:18:06;;;;;;;3.40;3.10;;;27.30;1.00;;;;;;5074822;28;20467;-69
2022/09/04 11:20:40;;;;;;;4.10;3.60;;;27.00;1.00;;;;;;5075720;28;20494;-74
2022/09/04 11:23:43;;;;;;;6.73;3.80;;;26.60;1.00;;;;;;5093669;28;20453;-69
2022/09/04 11:26:27;;;;;;;3.83;3.53;;;26.50;1.00;;;;;;5075119;28;20442;-69
2022/09/04 11:29:21;;;;;;;3.47;3.27;;;26.30;1.00;;;;;;5074915;28;20430;-75
2022/09/04 11:31:53;;;;;;;5.20;3.47;;;26.40;1.00;;;;;;5093837;28;20394;-75
2022/09/04 11:34:55;;;;;;;3.33;3.03;;;26.40;1.00;;;;;;5093621;28;20403;-75
2022/09/04 11:37:42;;;;;;;3.80;3.47;;;26.50;1.00;;;;;;5092747;28;20435;-75
2022/09/04 11:40:32;;;;;;;2.67;2.47;;;26.70;1.00;;;;;;5093733;28;20432;-69
2022/09/04 11:43:19;;;;;;;3.87;3.57;;;26.80;1.00;;;;;;5093692;28;20400;-70
2022/09/04 11:46:07;;;;;;;3.30;3.10;;;26.90;1.00;;;;;;5093340;28;20752;-71
2022/09/04 11:49:08;;;;;;;4.70;3.17;;;26.90;1.00;;;;;;5092190;28;20439;-75
2022/09/04 11:52:03;;;;;;;6.33;2.93;;;26.60;1.00;;;;;;5093264;28;20404;-70
2022/09/04 11:54:37;;;;;;;8.90;2.93;;;26.60;1.00;;;;;;5093266;28;20880;-70
2022/09/04 11:57:33;;;;;;;3.20;2.90;;;26.70;1.00;;;;;;5094489;28;20444;-70
2022/09/04 12:00:15;;;;;;;4.97;3.23;;;27.00;1.00;;;;;;5079742;28;20504;-70
2022/09/04 12:03:11;;;;;;;3.30;3.00;;;27.10;1.00;;;;;;5097593;28;20419;-69
2022/09/04 12:05:46;;;;;;;5.30;3.27;;;26.90;1.00;;;;;;5079278;28;20442;-74
2022/09/04 12:08:20;;;;;;;6.70;2.70;;;26.80;1.00;;;;;;5096469;28;20433;-74
2022/09/04 12:11:18;;;;;;;5.43;3.40;;;26.50;1.00;;;;;;5097358;28;20396;-74
2022/09/04 12:13:54;;;;;;;3.30;3.10;;;26.10;1.00;;;;;;5097181;28;20498;-74
2022/09/04 12:16:45;;;;;;;7.90;3.80;;;25.80;1.00;;;;;;5096134;28;21270;-73
2022/09/04 12:19:18;;;;;;;3.70;3.40;;;25.50;1.00;;;;;;5097189;28;20423;-74
2022/09/04 12:22:06;;;;;;;3.43;3.00;;;25.40;1.00;;;;;;5097095;28;20403;-74
2022/09/04 12:24:49;;;;;;;3.67;3.37;;;25.50;1.00;;;;;;5096869;28;20403;-74
2022/09/04 12:27:15;;;;;;;4.47;3.03;;;25.50;1.00;;;;;;5096188;28;20408;-74
2022/09/04 12:30:10;;;;;;;3.20;2.77;;;25.40;1.00;;;;;;5096855;28;20443;-74
2022/09/04 12:33:11;;;;;;;7.33;3.57;;;25.40;1.00;;;;;;5097119;28;20166;-74
2022/09/04 12:36:13;;;;;;;4.60;3.43;;;25.30;1.00;;;;;;5092793;28;20773;-74
2022/09/04 12:39:01;;;;;;;6.50;2.97;;;25.40;1.00;;;;;;5097034;28;20446;-75
2022/09/04 12:41:38;;;;;;;2.73;2.53;;;25.50;1.00;;;;;;5096916;28;20432;-72
2022/09/04 12:44:16;;;;;;;4.10;3.63;;;25.40;1.00;;;;;;5096182;28;20395;-74
2022/09/04 12:47:07;;;;;;;3.50;3.20;;;25.20;1.00;;;;;;5096199;28;20454;-74
2022/09/04 12:50:29;;;;;;;4.20;3.40;;;25.00;1.00;;;;;;5096731;28;20941;-75
2022/09/04 12:53:13;;;;;;;3.77;3.40;;;25.20;1.00;;;;;;5051652;28;20502;-74
2022/09/04 12:55:51;;;;;;;3.67;3.47;;;24.90;1.00;;;;;;5096477;28;20396;-74
2022/09/04 12:58:47;;;;;;;4.73;2.90;;;24.70;1.00;;;;;;5095770;28;20516;-75
2022/09/04 13:01:31;;;;;;;4.87;3.20;;;24.80;1.00;;;;;;5096185;28;20411;-74
2022/09/04 13:04:22;;;;;;;3.40;3.10;;;24.80;1.00;;;;;;5096365;28;20449;-75
2022/09/04 13:07:15;;;;;;;3.77;3.20;;;25.00;1.00;;;;;;5095372;28;20478;-74
2022/09/04 13:09:49;;;;;;;4.03;2.70;;;25.30;1.00;;;;;;5096215;28;20432;-72
2022/09/04 13:12:30;;;;;;;3.90;2.63;;;25.40;1.00;;;;;;5096036;28;20431;-72
2022/09/04 13:15:06;;;;;;;4.37;3.40;;;25.50;1.00;;;;;;5095966;28;20882;-72
2022/09/04 13:17:51;;;;;;;5.10;2.60;;;25.40;1.00;;;;;;5076951;28;20812;-75
2022/09/04 13:20:33;;;;;;;3.37;2.80;;;25.10;1.00;;;;;;5095842;28;20398;-71
2022/09/04 13:23:01;;;;;;;5.27;2.93;;;25.00;1.00;;;;;;5095868;28;20933;-72
2022/09/04 13:25:51;;;;;;;3.60;3.17;;;25.00;1.00;;;;;;5096031;28;20875;-72
2022/09/04 13:28:46;;;;;;;3.43;2.57;;;24.70;1.00;;;;;;5095032;28;20412;-72
2022/09/04 13:31:18;;;;;;;3.13;2.83;;;24.80;1.00;;;;;;5095839;28;20408;-76
2022/09/04 13:33:57;;;;;;;4.43;3.43;;;25.00;1.00;;;;;;5095925;28;20491;-72
2022/09/04 13:36:45;;;;;;;3.37;3.07;;;24.70;1.00;;;;;;5094919;28;20895;-71
2022/09/04 13:39:34;;;;;;;2.70;2.27;;;24.80;1.00;;;;;;5095718;28;20823;-74
2022/09/04 13:42:14;;;;;;;5.77;3.17;;;25.00;1.00;;;;;;5095841;28;20486;-75
2022/09/04 13:44:52;;;;;;;6.10;3.20;;;25.00;1.00;;;;;;5095712;28;20435;-75
2022/09/04 13:47:24;;;;;;;3.17;2.87;;;25.00;1.00;;;;;;5094785;28;20917;-72
2022/09/04 13:49:56;;;;;;;4.80;3.20;;;25.00;1.00;;;;;;5078210;28;20431;-76
2022/09/04 13:52:28;;;;;;;8.37;3.00;;;24.90;1.00;;;;;;5095352;28;20404;-74
2022/09/04 13:54:58;;;;;;;4.43;4.03;;;24.90;1.00;;;;;;5095403;28;20977;-74
2022/09/04 13:57:28;;;;;;;3.00;2.80;;;24.40;1.00;;;;;;5094313;28;20481;-75
2022/09/04 14:00:17;;;;;;;3.37;3.07;;;24.20;1.00;;;;;;5094974;28;20479;-71
2022/09/04 14:02:44;;;;;;;4.70;2.80;;;24.30;1.00;;;;;;5094819;28;20407;-75
2022/09/04 14:05:19;;;;;;;3.07;2.40;;;24.40;1.00;;;;;;5095302;28;20507;-73
2022/09/04 14:07:48;;;;;;;4.43;3.30;;;24.20;1.00;;;;;;5094238;28;20884;-75
2022/09/04 14:10:30;;;;;;;5.37;3.53;;;24.30;1.00;;;;;;5077502;28;20510;-74
2022/09/04 14:12:56;;;;;;;2.57;2.37;;;24.60;1.00;;;;;;5077132;28;20423;-71
2022/09/04 14:15:39;;;;;;;2.77;2.57;;;24.80;1.00;;;;;;5094943;28;20810;-70
2022/09/04 14:18:23;;;;;;;3.90;2.93;;;24.70;1.00;;;;;;5076058;28;20204;-75
2022/09/04 14:21:08;;;;;;;3.03;2.80;;;24.80;1.00;;;;;;5076393;28;20989;-75
2022/09/04 14:23:44;;;;;;;3.07;2.40;;;24.90;1.00;;;;;;5094966;28;20438;-75
2022/09/04 14:26:36;;;;;;;4.13;2.43;;;25.00;1.00;;;;;;5094107;28;20410;-75
2022/09/04 14:29:14;;;;;;;2.20;2.00;;;25.10;1.00;;;;;;5091704;28;20501;-72
2022/09/04 14:32:09;;;;;;;3.10;2.80;;;25.10;1.00;;;;;;5094830;28;20431;-75
2022/09/04 14:35:07;;;;;;;2.10;1.90;;;25.30;1.00;;;;;;5094184;28;20504;-73
2022/09/04 14:38:12;;;;;;;4.40;1.93;;;24.80;1.00;;;;;;5084908;28;20887;-72
2022/09/04 14:40:51;;;;;;;2.87;1.90;;;24.60;1.00;;;;;;5093741;28;20476;-72
2022/09/04 14:43:40;;;;;;;2.67;2.07;;;24.50;1.00;;;;;;5076348;28;20407;-72
2022/09/04 14:46:32;;;;;;;3.13;1.70;;;24.80;1.00;;;;;;5093609;28;20399;-72
2022/09/04 14:49:03;;;;;;;3.13;1.83;;;24.60;1.00;;;;;;5093864;28;20424;-72
2022/09/04 14:51:34;;;;;;;2.90;1.90;;;24.50;1.00;;;;;;5093619;28;20411;-75